createdAt,value
2023-04-09T04:01:36.266Z,10.80
2023-04-09T04:05:48.073Z,11.90
2023-04-09T04:10:01.510Z,9.60
2023-04-09T04:14:15.642Z,10.90
2023-04-09T04:18:30.741Z,10.20
2023-04-09T04:22:42.235Z,10.43
2023-04-09T04:26:53.720Z,11.53
2023-04-09T04:31:11.769Z,12.30
2023-04-09T04:35:25.010Z,9.20
2023-04-09T04:39:40.385Z,11.43
2023-04-09T04:43:57.174Z,11.10
2023-04-09T04:48:10.001Z,12.20
2023-04-09T04:52:21.960Z,12.60
2023-04-09T04:56:36.950Z,15.57
2023-04-09T05:01:15.501Z,12.27
2023-04-09T05:05:28.172Z,10.33
2023-04-09T05:09:42.903Z,15.10
2023-04-09T05:13:54.649Z,8.57
2023-04-09T05:18:08.494Z,10.80
2023-04-09T05:22:21.079Z,10.80
2023-04-09T05:26:32.677Z,10.23
2023-04-09T05:30:48.022Z,11.77
2023-04-09T05:35:00.978Z,10.93
2023-04-09T05:39:14.748Z,10.33
2023-04-09T05:43:27.191Z,11.37
2023-04-09T05:47:39.108Z,10.00
2023-04-09T05:52:00.581Z,12.63
2023-04-09T05:56:16.347Z,11.20
2023-04-09T06:00:36.224Z,11.40
2023-04-09T06:04:47.854Z,11.83
2023-04-09T06:09:00.468Z,11.47
2023-04-09T06:13:11.944Z,10.80
2023-04-09T06:17:23.438Z,10.10
2023-04-09T06:21:34.905Z,11.15
2023-04-09T06:25:46.333Z,13.63
2023-04-09T06:29:57.799Z,16.13
2023-04-09T06:34:09.275Z,18.33
2023-04-09T06:38:20.825Z,17.90
2023-04-09T06:42:32.335Z,10.07
2023-04-09T06:46:55.300Z,10.32
2023-04-09T06:51:07.491Z,9.93
2023-04-09T06:55:19.270Z,11.27
2023-04-09T06:59:30.921Z,8.50
2023-04-09T07:03:42.599Z,9.00
2023-04-09T07:07:54.185Z,8.75
2023-04-09T07:12:05.764Z,11.98
2023-04-09T07:16:17.294Z,11.02
2023-04-09T07:20:28.797Z,9.88
2023-04-09T07:24:40.564Z,10.07
2023-04-09T07:28:52.231Z,10.23
2023-04-09T07:33:03.820Z,10.50
2023-04-09T07:37:15.377Z,10.75
2023-04-09T07:41:26.861Z,11.68
2023-04-09T07:45:38.414Z,12.07
2023-04-09T07:49:50.370Z,9.95
2023-04-09T07:54:01.898Z,12.30
2023-04-09T07:58:13.461Z,11.70
2023-04-09T08:02:25.248Z,10.73
2023-04-09T08:06:37.580Z,11.48
2023-04-09T08:10:49.072Z,10.15
2023-04-09T08:15:00.901Z,10.88
2023-04-09T08:19:14.691Z,10.90
2023-04-09T08:23:26.249Z,9.50
2023-04-09T08:27:37.992Z,10.38
2023-04-09T08:31:49.666Z,11.00
2023-04-09T08:36:03.175Z,10.95
2023-04-09T08:40:15.375Z,10.02
2023-04-09T08:44:27.185Z,10.52
2023-04-09T08:48:42.271Z,10.25
2023-04-09T08:52:55.840Z,8.43
2023-04-09T08:57:07.511Z,11.70
2023-04-09T09:01:30.089Z,8.00
2023-04-09T09:05:46.017Z,9.27
2023-04-09T09:09:59.486Z,8.88
2023-04-09T09:14:16.262Z,8.73
2023-04-09T09:18:41.543Z,9.98
2023-04-09T09:22:55.649Z,8.23
2023-04-09T09:27:07.361Z,9.40
2023-04-09T09:31:20.778Z,7.80
2023-04-09T09:35:50.364Z,5.57
2023-04-09T09:40:02.212Z,6.90
2023-04-09T09:44:32.171Z,5.43
2023-04-09T09:48:46.181Z,3.83
2023-04-09T09:53:08.323Z,5.97
2023-04-09T09:57:22.262Z,6.07
2023-04-09T10:01:38.074Z,4.32
2023-04-09T10:05:51.494Z,4.00
2023-04-09T10:10:05.663Z,4.72
2023-04-09T10:14:18.621Z,3.70
2023-04-09T10:18:33.580Z,4.68
2023-04-09T10:22:51.811Z,4.18
2023-04-09T10:27:16.548Z,4.82
2023-04-09T10:31:28.744Z,4.35
2023-04-09T10:35:40.377Z,3.20
2023-04-09T10:39:52.888Z,3.80
2023-04-09T10:44:20.249Z,3.60
2023-04-09T10:48:35.227Z,5.28
2023-04-09T10:52:51.740Z,4.32
2023-04-09T10:57:11.314Z,4.78
2023-04-09T11:01:24.167Z,4.75
2023-04-09T11:05:39.678Z,3.65
2023-04-09T11:09:51.432Z,3.63
2023-04-09T11:14:03.257Z,3.55
2023-04-09T11:18:25.242Z,4.05
2023-04-09T11:22:37.976Z,4.18
2023-04-09T11:26:50.553Z,4.50
2023-04-09T11:31:05.335Z,4.03
2023-04-09T11:35:19.184Z,4.57
2023-04-09T11:39:30.993Z,3.53
2023-04-09T11:43:42.585Z,3.90
2023-04-09T11:47:54.945Z,3.30
2023-04-09T11:52:06.805Z,4.03
2023-04-09T11:56:18.528Z,3.08
2023-04-09T12:00:30.283Z,3.40
2023-04-09T12:04:51.156Z,4.32
2023-04-09T12:09:02.991Z,3.92
2023-04-09T12:13:16.625Z,4.05
2023-04-09T12:17:28.265Z,3.45
2023-04-09T12:21:47.882Z,3.88
2023-04-09T12:26:01.200Z,3.22
2023-04-09T12:30:12.861Z,3.85
2023-04-09T12:34:24.497Z,3.45
2023-04-09T12:38:36.248Z,3.45
2023-04-09T12:42:48.281Z,4.05
2023-04-09T12:46:59.881Z,3.65
2023-04-09T12:51:12.337Z,4.35
2023-04-09T12:55:23.953Z,4.68
2023-04-09T12:59:35.789Z,4.10
2023-04-09T13:03:47.581Z,5.07
2023-04-09T13:07:59.296Z,4.15
2023-04-09T13:12:11.491Z,4.30
2023-04-09T13:16:23.260Z,4.57
2023-04-09T13:20:35.155Z,6.00
2023-04-09T13:24:46.700Z,4.82
2023-04-09T13:28:58.938Z,4.53
2023-04-09T13:33:10.518Z,4.45
2023-04-09T13:37:22.086Z,4.35
2023-04-09T13:41:34.293Z,5.10
2023-04-09T13:45:45.805Z,6.82
2023-04-09T13:49:57.321Z,4.45
2023-04-09T13:54:11.077Z,5.25
2023-04-09T13:58:23.254Z,6.15
2023-04-09T14:02:34.934Z,4.70
2023-04-09T14:06:47.035Z,5.95
2023-04-09T14:10:58.567Z,6.32
2023-04-09T14:15:10.417Z,5.68
2023-04-09T14:19:23.016Z,5.35
2023-04-09T14:23:34.496Z,5.10
2023-04-09T14:27:46.302Z,4.88
2023-04-09T14:31:57.822Z,6.53
2023-04-09T14:36:09.999Z,4.28
2023-04-09T14:40:21.551Z,4.45
2023-04-09T14:44:33.100Z,5.18
2023-04-09T14:48:44.675Z,6.05
2023-04-09T14:52:56.312Z,5.38
2023-04-09T14:57:07.820Z,4.10
2023-04-09T15:01:19.597Z,5.05
2023-04-09T15:05:31.221Z,4.53
2023-04-09T15:09:42.708Z,4.05
2023-04-09T15:13:54.256Z,4.95
2023-04-09T15:18:06.193Z,4.97
2023-04-09T15:22:17.804Z,4.30
2023-04-09T15:26:29.378Z,4.82
2023-04-09T15:30:41.843Z,4.43
2023-04-09T15:34:53.374Z,4.18
2023-04-09T15:39:05.134Z,5.55
2023-04-09T15:43:17.348Z,4.63
2023-04-09T15:47:31.187Z,4.40
2023-04-09T15:51:44.163Z,5.53
2023-04-09T15:55:55.725Z,5.47
2023-04-09T16:00:10.780Z,5.38
2023-04-09T16:04:23.130Z,4.47
2023-04-09T16:08:36.435Z,3.80
2023-04-09T16:12:49.148Z,4.68
2023-04-09T16:17:00.922Z,4.18
2023-04-09T16:21:12.609Z,4.30
2023-04-09T16:25:24.496Z,5.22
2023-04-09T16:29:36.118Z,5.18
2023-04-09T16:33:47.656Z,4.40
2023-04-09T16:37:59.183Z,4.40
2023-04-09T16:42:12.093Z,4.07
2023-04-09T16:46:24.060Z,4.05
2023-04-09T16:50:36.358Z,3.45
2023-04-09T16:54:47.866Z,4.18
2023-04-09T16:58:59.389Z,4.15
2023-04-09T17:03:11.019Z,4.07
2023-04-09T17:07:23.277Z,5.20
2023-04-09T17:11:34.940Z,4.35
2023-04-09T17:15:46.437Z,4.63
2023-04-09T17:20:00.065Z,3.70
2023-04-09T17:24:11.581Z,4.47
2023-04-09T17:28:23.116Z,3.10
2023-04-09T17:32:34.704Z,3.65
2023-04-09T17:36:50.232Z,3.00
2023-04-09T17:41:01.723Z,3.20
2023-04-09T17:45:13.249Z,3.50
2023-04-09T17:49:24.730Z,3.05
2023-04-09T17:53:36.229Z,3.42
2023-04-09T17:57:47.978Z,3.40
2023-04-09T18:01:59.950Z,3.60
2023-04-09T18:06:11.846Z,3.78
2023-04-09T18:10:23.631Z,5.28
2023-04-09T18:14:35.482Z,4.55
2023-04-09T18:18:47.127Z,17.15
2023-04-09T18:22:58.710Z,8.65
2023-04-09T18:27:10.263Z,19.25
2023-04-09T18:31:21.991Z,9.57
2023-04-09T18:35:33.601Z,11.88
2023-04-09T18:39:46.212Z,11.02
2023-04-09T18:43:57.819Z,9.50
2023-04-09T18:48:09.325Z,6.45
2023-04-09T18:52:20.940Z,5.78
2023-04-09T18:56:32.729Z,9.95
2023-04-09T19:00:44.589Z,14.30
2023-04-09T19:04:56.195Z,17.48
2023-04-09T19:09:07.724Z,14.60
2023-04-09T19:13:19.279Z,12.52
2023-04-09T19:17:30.837Z,13.75
2023-04-09T19:21:42.350Z,10.65
2023-04-09T19:25:55.643Z,13.65
2023-04-09T19:30:07.870Z,13.85
2023-04-09T19:34:19.401Z,13.90
2023-04-09T19:38:31.113Z,12.88
2023-04-09T19:42:42.659Z,13.55
2023-04-09T19:46:54.246Z,12.98
2023-04-09T19:51:06.126Z,10.55
2023-04-09T19:55:17.904Z,11.93
2023-04-09T19:59:29.843Z,12.95
2023-04-09T20:03:41.545Z,11.68
2023-04-09T20:07:53.134Z,11.02
2023-04-09T20:12:06.910Z,9.85
2023-04-09T20:16:18.459Z,10.13
2023-04-09T20:20:30.068Z,10.55
2023-04-09T20:24:42.857Z,9.43
2023-04-09T20:28:54.663Z,8.07
2023-04-09T20:33:06.436Z,8.05
2023-04-09T20:37:18.034Z,8.35
2023-04-09T20:41:29.668Z,7.78
2023-04-09T20:45:41.263Z,8.60
2023-04-09T20:49:53.175Z,9.18
2023-04-09T20:54:04.700Z,6.68
2023-04-09T20:58:16.383Z,9.82
2023-04-09T21:02:28.209Z,9.82
2023-04-09T21:06:40.361Z,9.45
2023-04-09T21:10:51.902Z,11.02
2023-04-09T21:15:03.615Z,7.18
2023-04-09T21:19:15.500Z,7.50
2023-04-09T21:23:27.114Z,6.72
2023-04-09T21:27:38.776Z,6.85
